createdAt,value
2018-09-18T00:03:51.499Z,12.03
2018-09-18T00:06:20.523Z,16.23
2018-09-18T00:08:49.460Z,13.65
2018-09-18T00:11:18.408Z,9.50
2018-09-18T00:13:47.368Z,11.33
2018-09-18T00:16:16.334Z,9.20
2018-09-18T00:18:45.460Z,10.72
2018-09-18T00:21:14.699Z,11.88
2018-09-18T00:23:43.620Z,10.85
2018-09-18T00:26:12.526Z,9.93
2018-09-18T00:28:41.560Z,10.78
2018-09-18T00:31:10.477Z,10.82
2018-09-18T00:33:39.405Z,9.23
2018-09-18T00:36:08.789Z,11.85
2018-09-18T00:38:38.101Z,10.08
2018-09-18T00:41:07.851Z,9.48
2018-09-18T00:43:36.797Z,9.90
2018-09-18T00:46:05.743Z,8.50
2018-09-18T00:48:34.675Z,9.25
2018-09-18T00:51:03.608Z,9.05
2018-09-18T00:53:32.511Z,9.70
2018-09-18T00:56:01.461Z,9.73
2018-09-18T00:58:30.420Z,12.68
2018-09-18T01:00:59.334Z,11.63
2018-09-18T01:03:28.271Z,9.53
2018-09-18T01:05:57.485Z,12.70
2018-09-18T01:08:26.384Z,14.50
2018-09-18T01:10:55.297Z,14.43
2018-09-18T01:13:24.188Z,10.32
2018-09-18T01:15:53.121Z,9.75
2018-09-18T01:18:22.088Z,10.45
2018-09-18T01:20:51.043Z,10.10
2018-09-18T01:23:20.015Z,10.65
2018-09-18T01:25:48.949Z,10.95
2018-09-18T01:28:17.872Z,11.35
2018-09-18T01:30:46.815Z,12.23
2018-09-18T01:33:15.746Z,10.45
2018-09-18T01:35:44.667Z,10.90
2018-09-18T01:38:13.585Z,13.62
2018-09-18T01:40:42.535Z,12.35
2018-09-18T01:43:11.538Z,11.88
2018-09-18T01:45:40.622Z,14.10
2018-09-18T01:48:09.531Z,9.90
2018-09-18T01:50:38.802Z,10.80
2018-09-18T01:53:07.822Z,9.23
2018-09-18T01:55:36.759Z,9.70
2018-09-18T01:58:05.766Z,13.55
2018-09-18T02:00:34.767Z,10.90
2018-09-18T02:03:03.664Z,9.78
2018-09-18T02:05:32.649Z,13.35
2018-09-18T02:08:01.600Z,10.75
2018-09-18T02:10:30.523Z,10.38
2018-09-18T02:12:59.831Z,11.35
2018-09-18T02:15:28.771Z,11.75
2018-09-18T02:17:57.818Z,10.90
2018-09-18T02:20:26.712Z,10.43
2018-09-18T02:22:55.719Z,10.48
2018-09-18T02:25:24.635Z,10.65
2018-09-18T02:27:53.735Z,11.12
2018-09-18T02:30:22.673Z,10.43
2018-09-18T02:32:51.607Z,10.98
2018-09-18T02:35:20.539Z,9.55
2018-09-18T02:37:49.505Z,10.30
2018-09-18T02:40:18.458Z,11.10
2018-09-18T02:42:47.807Z,9.45
2018-09-18T02:45:16.764Z,11.60
2018-09-18T02:47:45.735Z,11.80
2018-09-18T02:50:14.667Z,10.82
2018-09-18T02:52:43.794Z,10.18
2018-09-18T02:55:12.753Z,11.50
2018-09-18T02:57:41.913Z,9.88
2018-09-18T03:00:10.873Z,10.40
2018-09-18T03:02:39.838Z,9.28
2018-09-18T03:05:08.805Z,10.32
2018-09-18T03:07:37.923Z,9.45
2018-09-18T03:10:07.021Z,11.57
2018-09-18T03:12:35.981Z,15.13
2018-09-18T03:15:05.088Z,11.15
2018-09-18T03:17:34.005Z,12.73
2018-09-18T03:20:03.108Z,9.00
2018-09-18T03:22:32.197Z,10.32
2018-09-18T03:25:01.168Z,12.70
2018-09-18T03:27:30.141Z,9.70
2018-09-18T03:29:59.098Z,10.88
2018-09-18T03:32:27.999Z,9.58
2018-09-18T03:34:56.926Z,8.95
2018-09-18T03:37:25.878Z,10.63
2018-09-18T03:39:54.828Z,10.32
2018-09-18T03:42:23.823Z,13.18
2018-09-18T03:44:52.787Z,14.28
2018-09-18T03:47:22.638Z,12.65
2018-09-18T03:49:52.838Z,11.60
2018-09-18T03:52:21.774Z,14.83
2018-09-18T03:54:50.712Z,12.68
2018-09-18T03:57:19.943Z,12.75
2018-09-18T03:59:48.893Z,12.58
2018-09-18T04:02:17.969Z,11.53
2018-09-18T04:04:46.933Z,10.95
2018-09-18T04:07:16.093Z,12.75
2018-09-18T04:09:45.033Z,10.60
2018-09-18T04:12:14.370Z,10.45
2018-09-18T04:14:43.437Z,11.45
2018-09-18T04:17:12.385Z,10.98
2018-09-18T04:19:41.373Z,9.85
2018-09-18T04:22:10.285Z,9.53
2018-09-18T04:24:39.425Z,14.87
2018-09-18T04:27:08.475Z,9.85
2018-09-18T04:29:37.457Z,11.48
2018-09-18T04:32:06.415Z,14.03
2018-09-18T04:34:41.819Z,12.43
2018-09-18T04:37:10.779Z,11.97
2018-09-18T04:39:39.739Z,15.68
2018-09-18T04:42:08.737Z,12.95
2018-09-18T04:44:37.725Z,11.68
2018-09-18T04:47:06.829Z,13.35
2018-09-18T04:49:35.951Z,16.87
2018-09-18T04:52:06.023Z,13.03
2018-09-18T04:54:34.957Z,25.30
2018-09-18T04:57:04.022Z,12.60
2018-09-18T04:59:32.991Z,12.60
2018-09-18T05:02:02.005Z,11.55
2018-09-18T05:04:31.142Z,13.30
2018-09-18T05:07:00.222Z,15.75
2018-09-18T05:09:29.218Z,11.70
2018-09-18T05:11:58.392Z,16.27
2018-09-18T05:14:27.410Z,12.43
2018-09-18T05:16:56.357Z,14.30
2018-09-18T05:19:25.370Z,14.05
2018-09-18T05:21:54.568Z,13.75
2018-09-18T05:24:23.513Z,13.18
2018-09-18T05:26:52.562Z,14.50
2018-09-18T05:29:21.532Z,17.95
2018-09-18T05:31:50.472Z,11.80
2018-09-18T05:34:19.397Z,13.10
2018-09-18T05:36:48.483Z,14.30
2018-09-18T05:39:17.504Z,19.62
2018-09-18T05:41:46.632Z,14.45
2018-09-18T05:44:15.586Z,14.63
2018-09-18T05:46:44.591Z,13.75
2018-09-18T05:49:13.618Z,16.50
2018-09-18T05:51:42.553Z,17.67
2018-09-18T05:54:11.580Z,13.45
2018-09-18T05:56:40.731Z,14.45
2018-09-18T05:59:09.716Z,17.10
2018-09-18T06:01:38.970Z,17.30
2018-09-18T06:04:08.190Z,18.60
2018-09-18T06:06:37.286Z,14.45
2018-09-18T06:09:09.476Z,12.13
2018-09-18T06:11:38.454Z,13.55
2018-09-18T06:14:07.451Z,14.23
2018-09-18T06:16:36.524Z,13.60
2018-09-18T06:19:05.549Z,40.50
2018-09-18T06:21:34.966Z,15.13
2018-09-18T06:24:03.959Z,13.65
2018-09-18T06:26:32.922Z,11.50
2018-09-18T06:29:02.005Z,14.33
2018-09-18T06:31:31.040Z,17.17
2018-09-18T06:34:00.117Z,11.15
2018-09-18T06:36:29.163Z,14.83
2018-09-18T06:38:58.162Z,15.65
2018-09-18T06:41:27.158Z,17.73
2018-09-18T06:43:56.091Z,15.38
2018-09-18T06:46:25.035Z,15.25
2018-09-18T06:48:53.989Z,11.60
2018-09-18T06:51:22.987Z,13.32
2018-09-18T06:53:52.092Z,17.65
2018-09-18T06:56:21.047Z,14.18
2018-09-18T06:58:50.140Z,12.18
2018-09-18T07:01:19.130Z,14.68
2018-09-18T07:03:48.441Z,11.73
2018-09-18T07:06:18.487Z,13.80
2018-09-18T07:08:47.501Z,13.85
2018-09-18T07:11:17.322Z,11.20
2018-09-18T07:13:46.626Z,15.60
2018-09-18T07:16:15.659Z,14.70
2018-09-18T07:18:44.922Z,16.60
2018-09-18T07:21:13.907Z,15.63
2018-09-18T07:23:43.057Z,12.78
2018-09-18T07:26:12.110Z,13.20
2018-09-18T07:28:41.237Z,13.15
2018-09-18T07:31:10.396Z,11.88
2018-09-18T07:33:39.406Z,13.53
2018-09-18T07:36:08.604Z,13.70
2018-09-18T07:38:37.902Z,15.15
2018-09-18T07:41:07.211Z,15.45
2018-09-18T07:43:36.692Z,12.25
2018-09-18T07:46:05.724Z,10.55
2018-09-18T07:48:37.726Z,15.38
2018-09-18T07:51:08.564Z,13.85
2018-09-18T07:53:37.568Z,12.37
2018-09-18T07:56:06.855Z,11.53
2018-09-18T07:58:36.652Z,12.10
2018-09-18T08:01:05.660Z,11.55
2018-09-18T08:03:34.650Z,11.65
2018-09-18T08:06:03.915Z,13.43
2018-09-18T08:08:32.929Z,14.25
2018-09-18T08:11:01.954Z,12.50
2018-09-18T08:13:31.057Z,12.95
2018-09-18T08:16:00.029Z,13.88
2018-09-18T08:18:29.189Z,16.67
2018-09-18T08:20:58.691Z,14.25
2018-09-18T08:23:27.721Z,14.90
2018-09-18T08:25:56.883Z,14.78
2018-09-18T08:28:26.078Z,12.82
2018-09-18T08:30:55.285Z,11.22
2018-09-18T08:33:24.218Z,13.55
2018-09-18T08:35:53.385Z,10.45
2018-09-18T08:38:22.325Z,13.85
2018-09-18T08:40:51.364Z,12.85
2018-09-18T08:43:20.528Z,12.78
2018-09-18T08:45:50.074Z,10.28
2018-09-18T08:48:19.205Z,16.60
2018-09-18T08:50:48.239Z,14.10
2018-09-18T08:53:17.839Z,11.73
2018-09-18T08:55:46.756Z,12.33
2018-09-18T08:58:15.955Z,12.60
2018-09-18T09:00:45.084Z,11.00
2018-09-18T09:03:14.135Z,10.40
2018-09-18T09:05:43.125Z,11.80
2018-09-18T09:08:12.248Z,9.78
2018-09-18T09:10:41.301Z,14.85
2018-09-18T09:13:10.482Z,14.53
2018-09-18T09:15:39.743Z,11.00
2018-09-18T09:18:09.002Z,9.80
2018-09-18T09:20:38.056Z,13.35
2018-09-18T09:23:07.296Z,11.10
2018-09-18T09:25:36.362Z,11.28
2018-09-18T09:28:05.697Z,12.45
2018-09-18T09:30:34.834Z,11.73
2018-09-18T09:33:03.998Z,10.50
2018-09-18T09:35:33.302Z,10.55
2018-09-18T09:38:02.347Z,11.00
2018-09-18T09:40:31.288Z,12.73
2018-09-18T09:43:00.400Z,15.30
2018-09-18T09:45:29.083Z,9.40
2018-09-18T09:47:57.814Z,9.10
2018-09-18T09:50:26.434Z,11.10
2018-09-18T09:52:55.174Z,8.80
2018-09-18T09:55:23.834Z,11.23
2018-09-18T09:57:52.663Z,8.27
2018-09-18T10:00:26.974Z,11.68
2018-09-18T10:02:55.707Z,10.53
2018-09-18T10:05:24.897Z,9.17
2018-09-18T10:07:53.568Z,10.00
2018-09-18T10:10:22.282Z,12.17
2018-09-18T10:12:51.084Z,10.93
2018-09-18T10:15:19.978Z,9.00
2018-09-18T10:17:49.083Z,8.67
2018-09-18T10:20:18.103Z,8.83
2018-09-18T10:22:46.744Z,9.67
2018-09-18T10:25:15.519Z,8.80
2018-09-18T10:27:44.416Z,10.10
2018-09-18T10:30:13.280Z,8.83
2018-09-18T10:32:42.205Z,7.37
2018-09-18T10:35:11.049Z,8.57
2018-09-18T10:37:39.747Z,7.60
2018-09-18T10:40:08.632Z,11.80
2018-09-18T10:42:37.532Z,6.83
2018-09-18T10:45:07.456Z,11.27
2018-09-18T10:47:36.617Z,8.90
2018-09-18T10:50:05.658Z,7.20
2018-09-18T10:52:34.756Z,8.33
2018-09-18T10:55:03.714Z,8.63
2018-09-18T10:57:32.347Z,6.30
2018-09-18T11:00:00.994Z,7.13
2018-09-18T11:02:29.667Z,6.33
2018-09-18T11:04:58.507Z,6.67
2018-09-18T11:07:27.314Z,7.30
2018-09-18T11:09:56.005Z,6.27
2018-09-18T11:12:24.842Z,6.20
2018-09-18T11:14:53.782Z,6.00
2018-09-18T11:17:22.850Z,7.00
2018-09-18T11:19:51.556Z,7.07
2018-09-18T11:22:20.471Z,8.07
2018-09-18T11:24:49.434Z,10.27
2018-09-18T11:27:18.252Z,5.93
2018-09-18T11:29:47.136Z,10.07
2018-09-18T11:32:16.238Z,8.93
2018-09-18T11:34:44.889Z,6.93
2018-09-18T11:37:13.812Z,9.17
2018-09-18T11:39:42.550Z,6.67
2018-09-18T11:42:11.203Z,4.07
2018-09-18T11:44:39.908Z,5.00
2018-09-18T11:47:08.573Z,7.57
2018-09-18T11:49:37.378Z,4.07
2018-09-18T11:52:06.075Z,6.17
2018-09-18T11:54:34.920Z,7.93
2018-09-18T11:57:03.887Z,4.60
2018-09-18T11:59:32.832Z,5.63
2018-09-18T12:02:01.561Z,4.10
2018-09-18T12:04:30.267Z,5.77
2018-09-18T12:06:59.176Z,5.57
2018-09-18T12:09:27.821Z,5.80
2018-09-18T12:11:56.563Z,5.10
2018-09-18T12:14:25.506Z,5.57
2018-09-18T12:16:54.291Z,5.63
2018-09-18T12:19:23.125Z,6.23
2018-09-18T12:21:51.846Z,3.90
2018-09-18T12:24:20.619Z,4.77
2018-09-18T12:26:49.292Z,4.17
2018-09-18T12:29:17.977Z,6.03
2018-09-18T12:31:46.648Z,6.23
2018-09-18T12:34:15.263Z,4.90
2018-09-18T12:36:44.361Z,5.40
2018-09-18T12:39:13.153Z,4.77
2018-09-18T12:41:41.897Z,4.30
2018-09-18T12:44:10.689Z,4.77
2018-09-18T12:46:39.371Z,7.30
2018-09-18T12:49:08.111Z,5.43
2018-09-18T12:51:36.991Z,8.33
2018-09-18T12:54:06.269Z,3.77
2018-09-18T12:56:35.054Z,6.47
2018-09-18T12:59:03.832Z,7.43
2018-09-18T13:01:32.530Z,6.20
2018-09-18T13:04:01.174Z,4.97
2018-09-18T13:06:30.253Z,4.50
2018-09-18T13:08:58.678Z,4.90
2018-09-18T13:11:27.389Z,4.00
2018-09-18T13:13:56.244Z,5.53
2018-09-18T13:16:25.146Z,5.10
2018-09-18T13:18:54.240Z,8.83
2018-09-18T13:21:22.851Z,4.60
2018-09-18T13:23:51.877Z,6.90
2018-09-18T13:26:20.530Z,4.07
2018-09-18T13:28:49.194Z,4.80
2018-09-18T13:31:17.838Z,4.67
2018-09-18T13:33:46.674Z,4.47
2018-09-18T13:36:15.453Z,4.40
2018-09-18T13:38:44.175Z,6.73
2018-09-18T13:41:13.033Z,6.07
2018-09-18T13:43:42.158Z,4.30
2018-09-18T13:46:11.276Z,5.73
2018-09-18T13:48:40.136Z,5.03
2018-09-18T13:51:09.096Z,4.50
2018-09-18T13:53:37.817Z,6.57
2018-09-18T13:56:06.932Z,6.03
2018-09-18T13:58:36.869Z,4.67
2018-09-18T14:01:05.871Z,5.30
2018-09-18T14:03:34.711Z,6.43
2018-09-18T14:06:03.515Z,5.97
2018-09-18T14:08:32.329Z,4.33
2018-09-18T14:11:00.954Z,5.07
2018-09-18T14:13:29.610Z,5.23
2018-09-18T14:15:58.279Z,5.60
2018-09-18T14:18:26.943Z,4.40
2018-09-18T14:20:55.701Z,4.77
2018-09-18T14:23:24.365Z,5.53
2018-09-18T14:25:53.043Z,5.30
2018-09-18T14:28:22.007Z,4.17
2018-09-18T14:30:50.730Z,4.87
2018-09-18T14:33:19.503Z,4.90
2018-09-18T14:35:48.369Z,6.50
2018-09-18T14:38:17.046Z,4.67
2018-09-18T14:40:45.993Z,4.70
2018-09-18T14:43:14.725Z,5.00
2018-09-18T14:45:43.409Z,5.43
2018-09-18T14:48:12.083Z,4.93
2018-09-18T14:50:40.933Z,5.37
2018-09-18T14:53:09.569Z,8.43
2018-09-18T14:55:38.211Z,6.53
2018-09-18T14:58:06.889Z,5.80
2018-09-18T15:00:35.513Z,5.03
2018-09-18T15:03:04.359Z,5.00
2018-09-18T15:05:33.048Z,6.87
2018-09-18T15:08:01.777Z,9.40
2018-09-18T15:10:30.439Z,5.83
2018-09-18T15:12:59.332Z,4.97
2018-09-18T15:15:28.466Z,5.30
2018-09-18T15:17:57.104Z,5.40
2018-09-18T15:20:25.756Z,7.40
2018-09-18T15:22:54.442Z,6.03
2018-09-18T15:25:23.200Z,7.43
2018-09-18T15:27:52.046Z,8.50
2018-09-18T15:30:21.133Z,6.20
2018-09-18T15:32:49.784Z,7.07
2018-09-18T15:35:18.566Z,7.23
2018-09-18T15:37:47.234Z,5.13
2018-09-18T15:40:15.903Z,5.03
2018-09-18T15:42:44.726Z,6.33
2018-09-18T15:45:13.377Z,4.77
2018-09-18T15:47:42.052Z,6.33
2018-09-18T15:50:10.831Z,6.07
2018-09-18T15:52:39.434Z,5.13
2018-09-18T15:55:08.135Z,6.47
2018-09-18T15:57:36.997Z,4.90
2018-09-18T16:00:05.984Z,5.63
2018-09-18T16:02:34.915Z,5.13
2018-09-18T16:05:05.895Z,4.90
2018-09-18T16:07:34.592Z,5.60
2018-09-18T16:10:03.412Z,4.80
2018-09-18T16:12:32.206Z,6.23
2018-09-18T16:15:00.916Z,5.73
2018-09-18T16:17:29.782Z,6.87
2018-09-18T16:19:58.583Z,6.37
2018-09-18T16:22:27.285Z,5.47
2018-09-18T16:24:56.162Z,5.23
2018-09-18T16:27:25.005Z,6.23
2018-09-18T16:29:53.689Z,5.60
2018-09-18T16:32:22.374Z,5.60
2018-09-18T16:34:51.018Z,6.40
2018-09-18T16:37:19.696Z,6.60
2018-09-18T16:39:48.431Z,7.17
2018-09-18T16:42:17.119Z,6.67
2018-09-18T16:44:45.803Z,6.03
2018-09-18T16:47:14.425Z,7.33
2018-09-18T16:49:43.059Z,5.70
2018-09-18T16:52:11.720Z,6.73
2018-09-18T16:54:40.469Z,10.27
2018-09-18T16:57:09.267Z,7.13
2018-09-18T16:59:38.045Z,7.70
2018-09-18T17:02:06.768Z,5.97
2018-09-18T17:04:35.652Z,7.57
2018-09-18T17:07:05.159Z,7.33
2018-09-18T17:09:33.821Z,7.03
2018-09-18T17:12:02.525Z,6.80
2018-09-18T17:14:31.211Z,7.93
2018-09-18T17:17:00.054Z,7.10
2018-09-18T17:19:28.757Z,8.83
2018-09-18T17:21:57.578Z,7.93
2018-09-18T17:24:26.588Z,9.50
2018-09-18T17:26:55.564Z,6.93
2018-09-18T17:29:24.265Z,9.87
2018-09-18T17:31:52.956Z,11.30
2018-09-18T17:34:21.711Z,16.03
2018-09-18T17:36:50.570Z,10.83
2018-09-18T17:39:19.289Z,11.33
2018-09-18T17:41:48.054Z,10.77
2018-09-18T17:44:16.726Z,12.23
2018-09-18T17:46:45.511Z,18.10
2018-09-18T17:49:14.165Z,15.20
2018-09-18T17:51:42.847Z,14.00
2018-09-18T17:54:11.618Z,10.37
2018-09-18T17:56:40.288Z,8.77
2018-09-18T17:59:08.985Z,14.83
2018-09-18T18:01:37.732Z,11.83
2018-09-18T18:04:06.868Z,11.93
2018-09-18T18:06:35.659Z,17.30
2018-09-18T18:09:06.989Z,18.42
2018-09-18T18:11:36.027Z,13.95
2018-09-18T18:14:05.243Z,11.20
2018-09-18T18:16:34.194Z,16.30
2018-09-18T18:19:03.051Z,12.23
2018-09-18T18:21:32.072Z,15.55
2018-09-18T18:24:01.378Z,13.20
2018-09-18T18:26:30.391Z,14.70
2018-09-18T18:28:59.528Z,15.35
2018-09-18T18:31:28.517Z,15.08
2018-09-18T18:33:57.477Z,13.88
2018-09-18T18:36:27.026Z,17.70
2018-09-18T18:38:56.003Z,12.80
2018-09-18T18:41:25.054Z,15.70
2018-09-18T18:43:54.155Z,19.42
2018-09-18T18:46:23.241Z,18.02
2018-09-18T18:48:52.229Z,18.10
2018-09-18T18:51:21.621Z,15.25
2018-09-18T18:53:50.286Z,18.17
2018-09-18T18:56:19.361Z,14.87
2018-09-18T18:58:48.457Z,16.00
2018-09-18T19:01:17.504Z,14.07
2018-09-18T19:03:46.479Z,13.88
2018-09-18T19:06:15.650Z,15.75
2018-09-18T19:08:44.758Z,16.80
2018-09-18T19:11:14.071Z,14.75
2018-09-18T19:13:43.009Z,16.02
2018-09-18T19:16:12.093Z,15.43
2018-09-18T19:18:41.173Z,13.80
2018-09-18T19:21:10.452Z,12.90
2018-09-18T19:23:39.554Z,15.40
2018-09-18T19:26:09.039Z,16.17
2018-09-18T19:28:38.167Z,13.95
2018-09-18T19:31:07.115Z,13.83
2018-09-18T19:33:36.347Z,17.60
2018-09-18T19:36:05.332Z,16.73
2018-09-18T19:38:34.553Z,40.25
2018-09-18T19:41:03.617Z,32.42
2018-09-18T19:43:32.628Z,22.95
2018-09-18T19:46:01.683Z,24.72
2018-09-18T19:48:31.020Z,19.45
2018-09-18T19:51:00.018Z,18.65
2018-09-18T19:53:29.466Z,12.60
2018-09-18T19:55:58.591Z,16.65
2018-09-18T19:58:27.652Z,14.38
2018-09-18T20:00:56.635Z,15.03
2018-09-18T20:03:25.883Z,20.80
2018-09-18T20:05:54.987Z,15.93
2018-09-18T20:08:24.058Z,13.95
2018-09-18T20:10:53.042Z,13.55
2018-09-18T20:13:22.123Z,19.73
2018-09-18T20:15:51.145Z,21.70
2018-09-18T20:18:20.101Z,18.85
2018-09-18T20:20:49.134Z,22.85
2018-09-18T20:23:18.239Z,20.62
2018-09-18T20:25:47.312Z,20.02
2018-09-18T20:28:16.240Z,18.32
2018-09-18T20:30:45.326Z,23.00
2018-09-18T20:33:14.277Z,14.58
2018-09-18T20:35:43.368Z,20.57
2018-09-18T20:38:12.431Z,19.70
2018-09-18T20:40:41.498Z,18.45
2018-09-18T20:43:10.516Z,15.63
2018-09-18T20:45:39.507Z,18.17
2018-09-18T20:48:08.539Z,17.50
2018-09-18T20:50:37.751Z,16.15
2018-09-18T20:53:06.940Z,15.13
2018-09-18T20:55:36.227Z,18.90
2018-09-18T20:58:05.196Z,23.12
2018-09-18T21:00:34.164Z,20.37
2018-09-18T21:03:03.459Z,19.87
2018-09-18T21:05:32.890Z,16.12
2018-09-18T21:08:01.871Z,14.78
2018-09-18T21:10:31.071Z,16.00
2018-09-18T21:13:00.178Z,14.68
2018-09-18T21:15:29.137Z,13.15
2018-09-18T21:17:58.189Z,11.70
2018-09-18T21:20:27.231Z,12.47
2018-09-18T21:22:56.212Z,10.13
2018-09-18T21:25:33.558Z,10.63
2018-09-18T21:28:02.544Z,11.93
2018-09-18T21:30:31.514Z,12.58
2018-09-18T21:33:00.506Z,10.13
2018-09-18T21:35:29.482Z,9.95
2018-09-18T21:37:58.573Z,8.38
2018-09-18T21:40:27.754Z,10.53
2018-09-18T21:42:57.637Z,9.65
2018-09-18T21:45:27.377Z,9.33
2018-09-18T21:47:56.490Z,11.55
2018-09-18T21:50:25.498Z,8.38
2018-09-18T21:52:54.460Z,10.88
2018-09-18T21:55:23.392Z,9.55
2018-09-18T21:57:52.362Z,9.20
2018-09-18T22:00:21.325Z,15.20
2018-09-18T22:02:50.274Z,9.30
2018-09-18T22:05:19.357Z,9.90
2018-09-18T22:07:48.700Z,10.30
2018-09-18T22:10:17.834Z,13.78
2018-09-18T22:12:47.041Z,9.78
2018-09-18T22:15:15.966Z,9.40
2018-09-18T22:17:44.902Z,8.78
2018-09-18T22:20:13.849Z,13.93
2018-09-18T22:22:43.122Z,9.95
2018-09-18T22:25:12.541Z,10.53
2018-09-18T22:27:41.618Z,10.63
2018-09-18T22:30:10.678Z,10.23
2018-09-18T22:32:39.894Z,8.08
2018-09-18T22:35:08.822Z,9.40
2018-09-18T22:37:37.785Z,9.65
2018-09-18T22:40:07.018Z,9.88
2018-09-18T22:42:35.970Z,9.05
2018-09-18T22:45:05.086Z,8.78
2018-09-18T22:47:34.284Z,9.33
2018-09-18T22:50:03.577Z,8.28
2018-09-18T22:52:32.504Z,10.95
2018-09-18T22:55:01.452Z,9.53
2018-09-18T22:57:30.474Z,9.70
2018-09-18T22:59:59.601Z,9.73
2018-09-18T23:02:28.955Z,7.90
2018-09-18T23:04:58.011Z,7.17
2018-09-18T23:07:26.936Z,8.00
2018-09-18T23:09:55.887Z,9.20
2018-09-18T23:12:24.919Z,12.88
2018-09-18T23:14:53.837Z,8.88
2018-09-18T23:17:22.803Z,10.25
2018-09-18T23:19:51.795Z,8.03
2018-09-18T23:22:20.794Z,10.18
2018-09-18T23:24:49.742Z,8.73
2018-09-18T23:27:18.777Z,10.50
2018-09-18T23:29:47.745Z,9.10
2018-09-18T23:32:16.670Z,7.12
2018-09-18T23:34:45.647Z,7.50
2018-09-18T23:37:14.617Z,10.72
2018-09-18T23:39:43.547Z,9.38
2018-09-18T23:42:12.501Z,12.65
2018-09-18T23:44:41.625Z,8.65
2018-09-18T23:47:10.691Z,8.40
2018-09-18T23:49:39.764Z,9.38
2018-09-18T23:52:08.674Z,8.65
2018-09-18T23:54:37.607Z,8.23
2018-09-18T23:57:06.537Z,8.13
2018-09-18T23:59:35.458Z,9.03
